GMT,Max TemperatureF,Mean TemperatureF,Min TemperatureF,Max Dew PointF,MeanDew PointF,Min DewpointF,Max Humidity, Mean Humidity, Min Humidity, Max Sea Level PressureIn, Mean Sea Level PressureIn, Min Sea Level PressureIn, Max VisibilityMiles, Mean VisibilityMiles, Min VisibilityMiles, Max Wind SpeedMPH, Mean Wind SpeedMPH, Max Gust SpeedMPH,PrecipitationIn, CloudCover, Events, WindDirDegrees
2012-11-1,50,44,39,46,40,35,93,77,58,29.19,28.95,28.85,6,6,6,20,9,29,0.12,2,Rain,263
2012-11-2,51,46,39,41,39,36,92,72,50,29.43,29.31,29.24,6,6,6,21,10,24,0.04,1,Rain,262
2012-11-3,51,46,36,43,38,35,94,71,48,29.54,29.46,29.38,6,6,6,21,10,31,0.12,2,Rain,259
2012-11-4,51,43,35,46,38,34,94,84,70,29.47,29.31,29.15,6,6,5,30,17,50,0.24,4,Rain,275
2012-11-5,50,42,35,43,38,33,100,80,50,30.03,29.73,29.49,6,5,1,14,9,,0.00,1,,360
2012-11-6,50,42,35,44,41,34,92,76,63,30.25,30.18,30.06,6,6,6,15,9,,0.01,3,Rain,268
2012-11-7,51,46,40,45,43,38,95,80,66,30.33,30.29,30.24,6,6,6,14,9,,0.00,5,Fog,267
2012-11-8,57,49,41,48,44,39,93,76,58,30.19,30.10,30.06,6,6,6,14,10,,0.00,4,,282
2012-11-9,54,50,45,48,45,43,92,78,60,30.01,29.81,29.59,6,6,6,20,12,,0.00,4,Rain,205
2012-11-10,51,44,33,49,45,32,97,88,78,29.60,29.45,29.42,6,6,6,18,8,,0.08,4,Rain,266
2012-11-11,51,42,33,43,39,32,97,81,53,30.14,29.94,29.66,6,6,6,8,6,,0.00,1,,341
2012-11-12,54,45,36,54,49,35,100,93,82,30.27,30.17,30.14,6,3,1,20,10,,0.16,5,Rain,221
2012-11-13,56,54,52,54,53,50,96,93,86,30.37,30.34,30.29,6,5,3,12,8,,0.00,5,,211
2012-11-14,54,48,42,49,44,36,94,76,54,30.35,30.29,30.24,6,6,5,10,8,,0.00,2,,82
2012-11-15,49,46,42,43,42,39,87,81,70,30.25,30.18,30.10,5,4,2,9,7,,0.00,5,,104
2012-11-16,54,48,45,52,47,41,100,93,82,30.06,29.94,29.78,4,2,0,12,7,,0.00,6,Fog-Rain,112
2012-11-17,57,52,46,54,48,43,94,85,73,29.88,29.76,29.71,6,6,2,13,9,,0.02,2,Rain,302
2012-11-18,50,43,36,40,36,33,93,76,47,30.02,29.98,29.89,6,6,6,9,6,,0.00,1,,356
2012-11-19,53,51,49,50,44,40,89,74,63,29.94,29.86,29.83,6,6,6,21,17,29,0.01,4,Rain,208
2012-11-20,56,54,53,52,51,50,94,86,75,29.83,29.81,29.79,6,6,4,22,19,31,0.04,3,Rain,189
2012-11-21,53,46,39,50,45,37,94,85,75,30.03,29.74,29.53,6,5,3,34,18,51,0.16,5,Rain,233
2012-11-22,55,54,52,49,47,45,82,76,65,30.02,29.88,29.74,6,6,6,33,24,40,0.12,1,,203
2012-11-23,52,46,36,46,44,36,100,85,72,30.02,29.92,29.79,6,6,6,12,7,,0.02,2,Rain,206
2012-11-24,55,44,36,53,48,35,100,93,81,30.00,29.79,29.33,4,3,2,28,14,30,0.43,6,Rain,113
2012-11-25,53,50,48,48,46,38,88,77,60,29.78,29.73,29.44,6,6,4,32,22,36,0.08,3,Rain,238
2012-11-26,51,48,45,46,44,42,93,88,77,29.53,29.45,29.42,6,6,2,18,7,,0.39,6,Rain,282
2012-11-27,47,46,43,45,43,39,93,89,74,29.82,29.63,29.52,6,5,3,18,9,26,0.08,6,Rain,355
2012-11-28,46,44,37,39,38,32,87,79,68,29.94,29.90,29.83,6,6,6,21,16,28,0.00,4,,358
2012-11-29,43,38,31,36,33,29,87,81,67,29.92,29.88,29.86,6,6,6,20,13,,0.00,1,,344
2012-11-30,40,36,31,34,31,28,91,82,70,29.96,29.88,29.84,6,6,5,9,6,,0.01,1,,351